Time;durP1;ratioP1;P1;durP2;ratioP2;P2;SDS_P1;SDS_P2;PMS_P1;PMS_P2;Temp;Humidity;BMP_temperature;BMP_pressure;BME280_temperature;BME280_humidity;BME280_pressure;Samples;Min_cycle;Max_cycle;Signal;HPM_P1;HPM_P2
2021/11/23 00:02:10;;;;;;;;;24.00;21.75;;;;;4.39;64.58;102457.63;5020099;28;45601;-71
2021/11/23 00:04:35;;;;;;;;;33.00;25.50;;;;;4.42;64.75;102451.50;5019219;28;45591;-68
2021/11/23 00:07:00;;;;;;;;;29.75;26.00;;;;;4.44;64.89;102454.94;5016589;28;45317;-67
2021/11/23 00:09:26;;;;;;;;;29.75;23.00;;;;;4.45;64.64;102457.50;5033294;28;45540;-68
2021/11/23 00:11:51;;;;;;;;;21.50;18.00;;;;;4.44;64.76;102453.16;5026033;28;46216;-67
2021/11/23 00:14:16;;;;;;;;;13.50;13.50;;;;;4.46;64.41;102454.00;5020598;28;45459;-68
2021/11/23 00:16:42;;;;;;;;;33.25;27.75;;;;;4.45;64.77;102454.03;5019954;28;45439;-65
2021/11/23 00:19:07;;;;;;;;;25.25;23.50;;;;;4.42;64.45;102449.75;5016673;28;45440;-70
2021/11/23 00:21:32;;;;;;;;;26.50;22.25;;;;;4.37;64.50;102449.00;5020361;28;47059;-67
2021/11/23 00:23:58;;;;;;;;;22.00;22.00;;;;;4.35;64.43;102461.16;5010445;28;45527;-71
2021/11/23 00:26:23;;;;;;;;;25.25;24.25;;;;;4.35;65.11;102452.53;5027631;28;45526;-69
2021/11/23 00:28:48;;;;;;;;;31.75;25.25;;;;;4.32;64.62;102449.97;5019397;28;45457;-69
2021/11/23 00:31:14;;;;;;;;;26.75;21.25;;;;;4.26;64.94;102441.38;5016741;28;45446;-71
2021/11/23 00:33:42;;;;;;;;;28.00;18.25;;;;;4.22;64.78;102449.31;5022178;28;45397;-71
2021/11/23 00:36:09;;;;;;;;;30.00;22.00;;;;;4.18;64.86;102445.91;5023423;28;45585;-69
2021/11/23 00:38:35;;;;;;;;;26.00;21.00;;;;;4.06;65.09;102441.81;5027211;28;45396;-69
2021/11/23 00:41:00;;;;;;;;;22.25;21.00;;;;;4.07;65.15;102446.09;5029994;28;47065;-68
2021/11/23 00:43:26;;;;;;;;;24.00;17.50;;;;;4.04;65.49;102445.31;5019939;28;45354;-67
2021/11/23 00:45:51;;;;;;;;;21.00;19.50;;;;;4.06;65.65;102446.13;5035190;28;45412;-68
2021/11/23 00:48:16;;;;;;;;;25.50;21.50;;;;;4.05;65.82;102449.63;5019418;28;45579;-70
2021/11/23 00:50:42;;;;;;;;;28.50;20.50;;;;;4.05;65.48;102442.69;5010984;28;46286;-69
2021/11/23 00:53:07;;;;;;;;;21.25;19.25;;;;;4.04;65.81;102438.34;5031105;28;47188;-69
2021/11/23 00:55:34;;;;;;;;;24.75;20.25;;;;;3.99;65.45;102437.59;5018331;28;45461;-67
2021/11/23 00:57:59;;;;;;;;;22.50;17.25;;;;;3.98;65.79;102441.06;5023174;28;45546;-70
2021/11/23 01:00:25;;;;;;;;;21.50;17.50;;;;;3.95;66.01;102438.53;5019236;28;45391;-68
2021/11/23 01:02:51;;;;;;;;;22.75;20.75;;;;;3.90;65.45;102435.16;5010254;28;45587;-64
2021/11/23 01:05:16;;;;;;;;;30.50;19.00;;;;;3.87;65.70;102445.63;5034311;28;45494;-68
2021/11/23 01:07:42;;;;;;;;;26.50;24.00;;;;;3.84;65.96;102438.75;5024301;28;45412;-68
2021/11/23 01:10:10;;;;;;;;;28.75;18.50;;;;;3.86;65.97;102438.72;5019928;28;46221;-69
2021/11/23 01:12:36;;;;;;;;;25.25;22.50;;;;;3.82;65.97;102444.88;5037728;28;45416;-68
2021/11/23 01:15:06;;;;;;;;;32.75;21.75;;;;;3.83;66.02;102441.34;5035581;28;45385;-68
2021/11/23 01:17:32;;;;;;;;;24.75;20.75;;;;;3.84;66.19;102435.28;5035515;28;45370;-67
2021/11/23 01:19:57;;;;;;;;;26.25;21.00;;;;;3.88;66.39;102444.72;5035572;28;46230;-66
2021/11/23 01:22:23;;;;;;;;;27.75;20.50;;;;;3.85;65.79;102444.78;5017447;28;45437;-69
2021/11/23 01:24:48;;;;;;;;;20.50;20.50;;;;;3.84;65.92;102437.88;5021505;28;45819;-70
2021/11/23 01:27:13;;;;;;;;;27.00;21.50;;;;;3.89;65.63;102441.25;4999756;28;45314;-68
2021/11/23 01:29:39;;;;;;;;;31.75;23.75;;;;;3.88;65.96;102439.53;5004670;28;47097;-69
2021/11/23 01:32:05;;;;;;;;;31.50;24.00;;;;;3.95;65.75;102451.53;5010586;28;45385;-68
2021/11/23 01:34:31;;;;;;;;;31.25;22.75;;;;;3.94;65.34;102452.41;5012099;28;45432;-66
2021/11/23 01:36:57;;;;;;;;;21.75;20.25;;;;;3.89;65.47;102442.13;4997712;28;45471;-68
2021/11/23 01:39:24;;;;;;;;;36.00;25.75;;;;;3.90;65.88;102445.56;4999586;28;46036;-68
2021/11/23 01:41:49;;;;;;;;;25.00;19.25;;;;;3.90;65.48;102448.16;5000848;28;45466;-68
2021/11/23 01:44:15;;;;;;;;;28.25;23.25;;;;;3.91;65.65;102448.13;5011940;28;45475;-67
2021/11/23 01:46:40;;;;;;;;;35.50;21.50;;;;;3.93;65.63;102454.19;5009945;28;45309;-68
2021/11/23 01:49:05;;;;;;;;;41.50;26.00;;;;;3.89;65.54;102442.13;4996614;28;45915;-69
2021/11/23 01:51:31;;;;;;;;;26.25;21.50;;;;;3.91;65.47;102452.50;5001871;28;45362;-67
2021/11/23 01:53:57;;;;;;;;;21.50;16.00;;;;;3.92;66.36;102454.22;5011688;28;45384;-67
2021/11/23 01:56:22;;;;;;;;;29.00;22.25;;;;;3.98;65.82;102454.06;5007294;28;45501;-70
2021/11/23 01:58:48;;;;;;;;;21.50;20.25;;;;;3.96;65.54;102456.72;4997594;28;45400;-70
2021/11/23 02:01:13;;;;;;;;;28.00;21.75;;;;;3.99;65.25;102458.41;4996942;28;45369;-68
2021/11/23 02:03:41;;;;;;;;;34.00;22.25;;;;;3.98;66.12;102451.47;5014731;28;45471;-67
2021/11/23 02:06:09;;;;;;;;;24.25;20.00;;;;;4.01;65.38;102467.03;5003933;28;45510;-67
2021/11/23 02:08:35;;;;;;;;;25.75;22.00;;;;;4.02;65.59;102466.16;5002282;28;46652;-67
2021/11/23 02:11:02;;;;;;;;;24.00;17.25;;;;;4.02;64.97;102460.97;5001762;28;45633;-65
2021/11/23 02:13:29;;;;;;;;;30.50;22.25;;;;;3.96;65.32;102454.09;4998145;28;45389;-67
2021/11/23 02:15:56;;;;;;;;;24.75;16.25;;;;;3.91;64.81;102449.91;5000930;28;45284;-66
2021/11/23 02:18:23;;;;;;;;;22.00;18.25;;;;;3.85;65.79;102460.41;5008590;28;47267;-67
2021/11/23 02:20:50;;;;;;;;;29.25;22.75;;;;;3.78;65.69;102465.69;5005708;28;45561;-66
2021/11/23 02:23:17;;;;;;;;;33.75;27.75;;;;;3.70;65.80;102454.59;5003137;28;45319;-67
2021/11/23 02:25:43;;;;;;;;;25.50;25.00;;;;;3.69;66.02;102449.44;5005638;28;45227;-66
2021/11/23 02:28:10;;;;;;;;;23.75;18.00;;;;;3.62;65.59;102457.31;5033325;28;45384;-65
2021/11/23 02:30:45;;;;;;;;;26.25;24.50;;;;;3.63;65.67;102465.97;5021330;28;46326;-65
2021/11/23 02:33:12;;;;;;;;;19.50;16.50;;;;;3.61;66.02;102463.41;5025364;28;45697;-69
2021/11/23 02:35:38;;;;;;;;;27.50;19.75;;;;;3.50;66.06;102461.88;5029998;28;45458;-76
2021/11/23 02:38:04;;;;;;;;;29.75;24.50;;;;;3.36;65.83;102457.75;5008494;28;48109;-78
2021/11/23 02:40:29;;;;;;;;;31.75;26.50;;;;;3.23;66.38;102457.09;5043225;28;45315;-80
2021/11/23 02:42:55;;;;;;;;;27.25;22.25;;;;;3.12;66.54;102448.63;5023620;28;45443;-75
2021/11/23 02:45:25;;;;;;;;;23.50;21.50;;;;;3.05;66.73;102447.84;5022725;28;45373;-70
2021/11/23 02:47:51;;;;;;;;;28.00;24.75;;;;;3.01;66.42;102435.81;5021795;28;45317;-70
2021/11/23 02:50:17;;;;;;;;;29.00;24.50;;;;;2.99;67.23;102436.72;5023894;28;45457;-73
2021/11/23 02:52:45;;;;;;;;;28.75;21.25;;;;;2.96;67.50;102443.66;5028323;28;45497;-70
2021/11/23 02:55:11;;;;;;;;;28.75;23.25;;;;;2.93;67.51;102442.81;5040212;28;45431;-71
2021/11/23 02:57:37;;;;;;;;;29.25;24.00;;;;;2.91;66.80;102440.25;5031650;28;46104;-70
2021/11/23 03:00:09;;;;;;;;;36.25;28.75;;;;;2.90;66.77;102437.69;5037927;28;45362;-71
2021/11/23 03:02:34;;;;;;;;;27.25;18.50;;;;;2.91;67.45;102436.81;5020900;28;45564;-71
2021/11/23 03:05:00;;;;;;;;;26.75;22.50;;;;;2.91;67.15;102442.00;5037048;28;45382;-69
2021/11/23 03:07:26;;;;;;;;;29.25;23.50;;;;;2.79;67.33;102436.09;5012836;28;47037;-70
2021/11/23 03:09:51;;;;;;;;;25.00;21.00;;;;;2.85;66.71;102437.75;5039052;28;45373;-72
2021/11/23 03:12:22;;;;;;;;;29.25;24.00;;;;;2.81;67.49;102433.47;5038329;28;45456;-72
2021/11/23 03:14:48;;;;;;;;;25.00;19.75;;;;;2.76;66.73;102436.16;5026430;28;45544;-70
2021/11/23 03:17:16;;;;;;;;;25.75;23.75;;;;;2.75;67.18;102425.78;5023848;28;46126;-70
2021/11/23 03:19:42;;;;;;;;;31.00;22.50;;;;;2.70;67.40;102428.44;5030501;28;45564;-71
2021/11/23 03:22:09;;;;;;;;;30.50;20.75;;;;;2.71;67.59;102432.78;5035289;28;45471;-72
2021/11/23 03:24:35;;;;;;;;;32.25;24.00;;;;;2.69;67.45;102425.88;5025447;28;45652;-71
2021/11/23 03:27:00;;;;;;;;;28.50;27.00;;;;;2.67;67.59;102425.88;5026909;28;46582;-72
2021/11/23 03:29:26;;;;;;;;;25.00;23.75;;;;;2.66;67.61;102416.41;5032964;28;45625;-71
2021/11/23 03:31:51;;;;;;;;;26.00;23.75;;;;;2.69;67.93;102424.13;5044916;28;45485;-73
2021/11/23 03:34:17;;;;;;;;;30.50;24.50;;;;;2.70;67.12;102410.28;5044392;28;45820;-73
2021/11/23 03:36:43;;;;;;;;;24.50;19.25;;;;;2.73;67.61;102419.75;5029059;28;45434;-70
2021/11/23 03:39:09;;;;;;;;;18.75;14.00;;;;;2.75;66.79;102418.88;5027797;28;45469;-73
2021/11/23 03:41:34;;;;;;;;;25.75;23.50;;;;;2.79;66.78;102420.53;5041524;28;45433;-72
2021/11/23 03:44:00;;;;;;;;;31.75;24.25;;;;;2.78;66.88;102418.81;5023119;28;45402;-71
2021/11/23 03:46:25;;;;;;;;;24.50;20.00;;;;;2.84;67.00;102424.78;5018533;28;50037;-71
2021/11/23 03:48:52;;;;;;;;;24.00;22.50;;;;;2.84;66.75;102427.38;5036546;28;45392;-73
2021/11/23 03:51:19;;;;;;;;;32.00;22.75;;;;;2.86;66.19;102430.84;5021946;28;45486;-73
2021/11/23 03:53:44;;;;;;;;;24.75;21.75;;;;;2.87;66.13;102422.13;5020451;28;45302;-71
2021/11/23 03:56:11;;;;;;;;;28.00;23.00;;;;;2.88;66.10;102416.94;5026764;28;45465;-70
2021/11/23 03:58:37;;;;;;;;;22.50;19.00;;;;;2.90;65.78;102411.72;5031903;28;45361;-72
2021/11/23 04:01:02;;;;;;;;;30.00;19.75;;;;;2.91;66.26;102418.66;5026948;28;45359;-74
2021/11/23 04:03:28;;;;;;;;;28.25;23.25;;;;;2.92;66.73;102417.75;5021043;28;45503;-71
2021/11/23 04:05:53;;;;;;;;;20.25;15.75;;;;;2.93;66.37;102416.88;5008288;28;48295;-75
2021/11/23 04:08:20;;;;;;;;;30.00;23.00;;;;;2.92;66.53;102423.81;5028537;28;50007;-75
2021/11/23 04:10:46;;;;;;;;;28.25;21.50;;;;;2.87;66.58;102416.94;5022584;28;45502;-73
2021/11/23 04:13:11;;;;;;;;;24.75;15.75;;;;;2.85;65.61;102423.91;5033622;28;45523;-74
2021/11/23 04:15:37;;;;;;;;;27.25;23.50;;;;;2.88;65.80;102426.47;5021246;28;46312;-73
2021/11/23 04:18:02;;;;;;;;;30.00;22.25;;;;;2.90;66.05;102428.16;5032747;28;45459;-74
2021/11/23 04:20:28;;;;;;;;;31.25;26.00;;;;;2.87;65.97;102430.81;5014011;28;45522;-72
2021/11/23 04:22:53;;;;;;;;;22.25;16.50;;;;;2.86;66.49;102430.84;5032487;28;45286;-74
2021/11/23 04:25:19;;;;;;;;;27.00;19.50;;;;;2.82;65.56;102414.44;5034237;28;46044;-76
2021/11/23 04:27:44;;;;;;;;;33.00;29.00;;;;;2.86;65.36;102415.25;5014191;28;45518;-70
2021/11/23 04:30:12;;;;;;;;;21.75;16.00;;;;;2.88;65.68;102423.88;5008949;28;45626;-75
2021/11/23 04:32:38;;;;;;;;;22.00;18.75;;;;;2.91;65.65;102418.66;5034047;28;45575;-74
2021/11/23 04:35:05;;;;;;;;;28.50;23.75;;;;;2.93;65.96;102425.53;5034649;28;46083;-72
2021/11/23 04:37:30;;;;;;;;;27.75;19.75;;;;;2.96;65.49;102417.69;5034890;28;45394;-70
2021/11/23 04:39:56;;;;;;;;;24.25;18.00;;;;;3.01;65.44;102425.41;5000712;28;45352;-77
2021/11/23 04:42:21;;;;;;;;;25.00;20.25;;;;;3.03;65.72;102428.81;5032231;28;45595;-76
2021/11/23 04:44:47;;;;;;;;;25.50;19.00;;;;;3.08;65.72;102426.19;5011332;28;46328;-74
2021/11/23 04:47:12;;;;;;;;;31.25;19.75;;;;;3.12;64.85;102428.69;5024780;28;45285;-73
2021/11/23 04:49:37;;;;;;;;;31.00;26.25;;;;;3.17;65.65;102431.22;5033522;28;45250;-73
2021/11/23 04:52:03;;;;;;;;;24.25;20.50;;;;;3.19;64.91;102434.66;5037089;28;45350;-68
2021/11/23 04:54:28;;;;;;;;;25.25;18.75;;;;;3.23;65.19;102441.53;5034725;28;46001;-66
2021/11/23 04:56:54;;;;;;;;;27.00;20.00;;;;;3.34;64.74;102441.34;5021952;28;45411;-66
2021/11/23 04:59:19;;;;;;;;;29.25;20.75;;;;;3.41;65.02;102445.56;5036258;28;45603;-65
2021/11/23 05:01:45;;;;;;;;;21.50;18.25;;;;;3.47;64.74;102439.38;5035914;28;45483;-68
2021/11/23 05:04:10;;;;;;;;;23.25;17.25;;;;;3.51;64.45;102435.00;5035939;28;46376;-68
2021/11/23 05:06:35;;;;;;;;;35.00;19.50;;;;;3.49;64.16;102437.63;5034638;28;45411;-67
2021/11/23 05:09:01;;;;;;;;;16.50;16.25;;;;;3.52;64.21;102434.13;5038154;28;45404;-66
2021/11/23 05:11:28;;;;;;;;;17.25;14.25;;;;;3.56;63.69;102439.22;5036853;28;45564;-67
2021/11/23 05:13:53;;;;;;;;;20.00;18.75;;;;;3.59;64.04;102435.72;5036038;28;45458;-67
2021/11/23 05:16:19;;;;;;;;;25.25;18.25;;;;;3.64;63.55;102436.50;5017419;28;45541;-67
2021/11/23 05:18:45;;;;;;;;;20.50;19.25;;;;;3.66;63.65;102437.34;5034321;28;45983;-66
2021/11/23 05:21:11;;;;;;;;;20.50;19.75;;;;;3.66;62.73;102420.88;5037929;28;45560;-67
2021/11/23 05:23:36;;;;;;;;;23.50;19.50;;;;;3.64;63.28;102428.69;5035213;28;46084;-68
2021/11/23 05:26:02;;;;;;;;;23.00;16.50;;;;;3.66;63.10;102434.75;5034765;28;45627;-66
2021/11/23 05:28:28;;;;;;;;;22.75;16.75;;;;;3.66;63.38;102442.53;5035276;28;45481;-67
2021/11/23 05:30:53;;;;;;;;;17.25;13.25;;;;;3.67;62.94;102440.78;5034598;28;45333;-66
2021/11/23 05:33:19;;;;;;;;;23.25;12.75;;;;;3.67;62.18;102445.97;5022275;28;45526;-67
2021/11/23 05:35:49;;;;;;;;;19.75;14.75;;;;;3.67;63.31;102449.44;5040040;28;45467;-67
2021/11/23 05:38:15;;;;;;;;;17.00;14.75;;;;;3.67;62.50;102448.59;5036282;28;45574;-66
2021/11/23 05:40:41;;;;;;;;;24.00;17.25;;;;;3.67;62.55;102446.81;5035027;28;45468;-67
2021/11/23 05:43:06;;;;;;;;;21.00;18.00;;;;;3.67;62.00;102462.44;5034302;28;46153;-68
2021/11/23 05:45:32;;;;;;;;;20.50;17.75;;;;;3.69;62.48;102446.81;5035098;28;45532;-68
2021/11/23 05:47:57;;;;;;;;;21.25;19.25;;;;;3.70;61.93;102449.41;5037034;28;45459;-72
2021/11/23 05:50:22;;;;;;;;;20.25;17.00;;;;;3.69;62.05;102450.28;5037296;28;45266;-68
2021/11/23 05:52:48;;;;;;;;;17.75;13.00;;;;;3.74;62.48;102450.19;5031972;28;47732;-66
2021/11/23 05:55:13;;;;;;;;;24.00;17.75;;;;;3.80;61.98;102447.47;5035221;28;45306;-67
2021/11/23 05:57:39;;;;;;;;;15.00;14.75;;;;;3.84;62.14;102453.47;5027175;28;45342;-67
2021/11/23 06:00:05;;;;;;;;;19.50;18.25;;;;;3.84;62.07;102449.16;5034894;28;45403;-67
2021/11/23 06:02:31;;;;;;;;;19.50;14.75;;;;;3.88;62.38;102460.31;5034060;28;46406;-67
2021/11/23 06:04:59;;;;;;;;;21.25;20.25;;;;;3.85;62.28;102452.59;5034322;28;45497;-67
2021/11/23 06:07:24;;;;;;;;;26.75;17.25;;;;;3.85;62.49;102460.41;5033632;28;45471;-66
2021/11/23 06:09:50;;;;;;;;;22.00;16.25;;;;;3.85;61.63;102466.44;5035211;28;45410;-67
2021/11/23 06:12:15;;;;;;;;;22.25;17.00;;;;;3.75;62.03;102463.16;5036158;28;46482;-67
2021/11/23 06:14:40;;;;;;;;;14.50;14.00;;;;;3.72;62.00;102468.41;5036060;28;45430;-67
2021/11/23 06:17:08;;;;;;;;;30.25;22.25;;;;;3.73;61.83;102466.69;5046190;28;45487;-68
2021/11/23 06:19:33;;;;;;;;;22.75;20.00;;;;;3.66;61.77;102459.84;5037865;28;45290;-68
2021/11/23 06:21:58;;;;;;;;;19.50;17.25;;;;;3.72;61.11;102462.34;5036497;28;46107;-68
2021/11/23 06:24:24;;;;;;;;;21.00;17.00;;;;;3.67;61.08;102459.81;5026583;28;45369;-68
2021/11/23 06:26:49;;;;;;;;;23.00;20.00;;;;;3.65;61.53;102460.75;5031868;28;45454;-67
2021/11/23 06:29:14;;;;;;;;;15.00;11.50;;;;;3.59;61.79;102464.31;5036457;28;45557;-68
2021/11/23 06:31:40;;;;;;;;;24.00;18.00;;;;;3.56;61.61;102460.03;5037963;28;46158;-67
2021/11/23 06:34:08;;;;;;;;;22.50;19.00;;;;;3.54;61.39;102466.13;5034962;28;45612;-66
2021/11/23 06:36:34;;;;;;;;;19.00;13.50;;;;;3.42;61.58;102447.25;5035649;28;45389;-68
2021/11/23 06:39:01;;;;;;;;;18.75;16.00;;;;;3.53;61.74;102470.47;5034007;28;45281;-67
2021/11/23 06:41:26;;;;;;;;;18.00;14.50;;;;;3.55;61.18;102470.44;5043821;28;46689;-68
2021/11/23 06:43:53;;;;;;;;;21.75;16.75;;;;;3.52;61.89;102468.75;5044898;28;45534;-67
2021/11/23 06:46:18;;;;;;;;;20.75;17.00;;;;;3.55;61.65;102473.88;5046610;28;45419;-66
2021/11/23 06:48:43;;;;;;;;;13.50;11.00;;;;;3.57;61.19;102472.13;5036935;28;45256;-67
2021/11/23 06:51:09;;;;;;;;;12.00;9.00;;;;;3.55;61.17;102483.44;5036446;28;46053;-66
2021/11/23 06:53:35;;;;;;;;;20.00;16.00;;;;;3.54;61.42;102486.91;5038065;28;45380;-68
2021/11/23 06:56:00;;;;;;;;;15.00;13.25;;;;;3.53;61.43;102480.00;5037966;28;45443;-67
2021/11/23 06:58:26;;;;;;;;;13.00;10.25;;;;;3.53;60.91;102498.19;5039074;28;45455;-68
2021/11/23 07:00:51;;;;;;;;;23.00;17.00;;;;;3.44;61.09;102494.88;5037217;28;45690;-67
2021/11/23 07:03:17;;;;;;;;;20.75;16.25;;;;;3.45;61.02;102493.13;5039324;28;45647;-67
2021/11/23 07:05:42;;;;;;;;;14.25;5.75;;;;;3.49;61.39;102500.00;5037261;28;45598;-68
2021/11/23 07:08:07;;;;;;;;;11.75;9.50;;;;;3.53;60.89;102505.97;5037391;28;45508;-67
2021/11/23 07:10:33;;;;;;;;;22.25;14.50;;;;;3.54;60.83;102507.69;5038919;28;46090;-66
2021/11/23 07:13:02;;;;;;;;;11.50;10.25;;;;;3.54;60.83;102508.59;5038009;28;45400;-68
2021/11/23 07:15:28;;;;;;;;;19.25;12.00;;;;;3.49;61.20;102500.00;5036765;28;45526;-67
2021/11/23 07:17:53;;;;;;;;;18.75;16.25;;;;;3.51;60.67;102508.59;5038564;28;45496;-68
2021/11/23 07:20:19;;;;;;;;;19.25;15.25;;;;;3.51;60.78;102507.75;5036904;28;46043;-66
2021/11/23 07:22:45;;;;;;;;;17.25;12.00;;;;;3.55;60.74;102514.63;5037862;28;45409;-67
2021/11/23 07:25:10;;;;;;;;;18.00;14.25;;;;;3.55;60.58;102515.47;5036679;28;45385;-68
2021/11/23 07:27:36;;;;;;;;;17.00;14.00;;;;;3.53;60.30;102512.06;5037519;28;45198;-68
2021/11/23 07:30:03;;;;;;;;;19.00;13.25;;;;;3.56;60.04;102518.94;5038717;28;46292;-67
2021/11/23 07:32:29;;;;;;;;;12.25;8.50;;;;;3.52;59.84;102522.47;5038691;28;45448;-68
2021/11/23 07:34:54;;;;;;;;;14.75;13.25;;;;;3.47;59.95;102518.19;5042411;28;45401;-69
2021/11/23 07:37:19;;;;;;;;;15.00;11.75;;;;;3.50;59.75;102529.44;5044689;28;45314;-67
2021/11/23 07:39:46;;;;;;;;;15.25;13.50;;;;;3.53;59.87;102542.34;5045331;28;45373;-67
2021/11/23 07:42:12;;;;;;;;;17.25;13.00;;;;;3.51;60.23;102534.59;5043108;28;47181;-68
2021/11/23 07:44:37;;;;;;;;;11.50;11.50;;;;;3.54;60.15;102529.38;5037949;28;45599;-68
2021/11/23 07:47:03;;;;;;;;;13.50;12.25;;;;;3.58;59.58;102538.81;5038202;28;45388;-68
2021/11/23 07:49:28;;;;;;;;;16.25;12.50;;;;;3.65;59.07;102546.53;5043232;28;47163;-67
2021/11/23 07:51:54;;;;;;;;;13.50;13.50;;;;;3.66;59.70;102541.31;5036965;28;45246;-68
2021/11/23 07:54:19;;;;;;;;;11.75;9.00;;;;;3.67;59.87;102544.75;5024318;28;45336;-67
2021/11/23 07:56:45;;;;;;;;;14.50;12.75;;;;;3.70;59.89;102561.16;5036532;28;45438;-67
2021/11/23 07:59:11;;;;;;;;;22.00;13.75;;;;;3.76;59.00;102553.28;5021570;28;45949;-68
2021/11/23 08:01:36;;;;;;;;;18.75;10.00;;;;;3.80;59.00;102554.94;5036669;28;45267;-68
2021/11/23 08:04:02;;;;;;;;;18.00;11.50;;;;;3.88;58.75;102559.13;5036012;28;45839;-67
2021/11/23 08:06:27;;;;;;;;;13.75;10.25;;;;;3.92;58.71;102555.63;5038525;28;45405;-68
2021/11/23 08:08:53;;;;;;;;;11.00;9.50;;;;;4.00;58.47;102556.34;5036445;28;45549;-68
2021/11/23 08:11:19;;;;;;;;;14.25;10.25;;;;;4.09;57.73;102563.97;5036961;28;45491;-67
2021/11/23 08:13:44;;;;;;;;;9.50;9.00;;;;;4.14;57.85;102561.31;5037169;28;45329;-67
2021/11/23 08:16:09;;;;;;;;;13.25;9.00;;;;;4.16;57.24;102569.06;5036990;28;45380;-67
2021/11/23 08:18:35;;;;;;;;;13.00;9.75;;;;;4.17;56.63;102565.59;5032976;28;46350;-67
2021/11/23 08:21:03;;;;;;;;;13.25;9.00;;;;;4.16;57.24;102571.69;5035899;28;45403;-69
2021/11/23 08:23:29;;;;;;;;;10.25;10.25;;;;;4.12;56.62;102563.91;5039912;28;45328;-67
2021/11/23 08:25:54;;;;;;;;;5.75;4.00;;;;;4.18;56.39;102569.88;5037604;28;45609;-68
2021/11/23 08:28:23;;;;;;;;;11.50;8.00;;;;;4.19;56.31;102580.28;5036234;28;45419;-69
2021/11/23 08:30:49;;;;;;;;;8.25;7.25;;;;;4.18;56.64;102568.16;5034259;28;45630;-66
2021/11/23 08:33:14;;;;;;;;;10.50;6.25;;;;;4.23;55.95;102578.47;5035633;28;45354;-68
2021/11/23 08:35:39;;;;;;;;;13.50;8.75;;;;;4.19;56.88;102566.41;5034840;28;45501;-67
2021/11/23 08:38:05;;;;;;;;;5.50;2.50;;;;;4.17;55.98;102582.06;5035217;28;45646;-67
2021/11/23 08:40:30;;;;;;;;;9.00;5.50;;;;;4.18;56.28;102569.88;5033027;28;45509;-68
2021/11/23 08:42:58;;;;;;;;;9.50;7.25;;;;;4.21;55.83;102568.09;5035794;28;45317;-66
2021/11/23 08:45:24;;;;;;;;;13.00;9.50;;;;;4.29;55.42;102565.34;5035696;28;45313;-68
2021/11/23 08:47:49;;;;;;;;;6.75;6.00;;;;;4.32;55.07;102567.91;5035422;28;45673;-68
2021/11/23 08:50:15;;;;;;;;;10.25;6.75;;;;;4.37;55.37;102560.88;5014015;28;45647;-69
2021/11/23 08:52:40;;;;;;;;;7.75;6.00;;;;;4.38;55.16;102564.34;5036033;28;45409;-68
2021/11/23 08:55:06;;;;;;;;;10.25;7.00;;;;;4.42;55.85;102560.78;5035411;28;45523;-69
2021/11/23 08:57:33;;;;;;;;;5.50;5.00;;;;;4.46;54.62;102563.31;5035432;28;46324;-68
2021/11/23 09:00:31;;;;;;;;;5.25;5.25;;;;;4.47;54.88;102570.22;5036408;28;45416;-68
2021/11/23 09:02:53;;;;;;;;;6.50;2.00;;;;;4.54;54.12;102580.50;5033326;28;49590;-68
2021/11/23 09:05:20;;;;;;;;;12.75;5.50;;;;;4.58;53.91;102567.41;5036861;28;45526;-67
2021/11/23 09:07:46;;;;;;;;;6.00;5.50;;;;;4.68;53.50;102577.66;5037829;28;46967;-69
2021/11/23 09:10:18;;;;;;;;;5.00;4.50;;;;;4.69;53.70;102569.81;5036506;28;45362;-68
2021/11/23 09:12:45;;;;;;;;;8.75;5.25;;;;;4.72;54.11;102572.38;5034814;28;45471;-68
2021/11/23 09:15:10;;;;;;;;;8.50;6.00;;;;;4.77;53.88;102580.94;5035686;28;45547;-67
2021/11/23 09:17:36;;;;;;;;;6.00;5.00;;;;;4.81;54.04;102588.69;5036586;28;46008;-67
2021/11/23 09:20:01;;;;;;;;;10.00;5.75;;;;;4.87;54.14;102591.16;5036247;28;45496;-67
2021/11/23 09:22:28;;;;;;;;;6.75;5.00;;;;;4.87;53.74;102589.41;5035931;28;45267;-68
2021/11/23 09:24:53;;;;;;;;;9.25;5.00;;;;;4.96;52.98;102598.78;5035027;28;45449;-67
2021/11/23 09:27:19;;;;;;;;;6.25;3.50;;;;;4.99;53.21;102595.25;5037313;28;45231;-66
2021/11/23 09:29:44;;;;;;;;;7.50;5.00;;;;;5.04;53.50;102591.66;5040036;28;45453;-68
2021/11/23 09:32:12;;;;;;;;;6.25;4.00;;;;;5.11;53.05;102584.56;5038181;28;45845;-67
2021/11/23 09:34:38;;;;;;;;;5.75;4.50;;;;;5.19;51.53;102581.78;5038667;28;45330;-66
2021/11/23 09:37:03;;;;;;;;;5.00;5.00;;;;;5.21;51.81;102572.22;5037269;28;45630;-67
2021/11/23 09:39:28;;;;;;;;;4.00;2.00;;;;;5.25;51.59;102581.66;5035397;28;45385;-67
2021/11/23 09:41:54;;;;;;;;;3.00;3.00;;;;;5.34;52.74;102584.06;5036452;28;45516;-67
2021/11/23 09:44:19;;;;;;;;;4.33;3.00;;;;;5.39;51.49;102582.22;5036417;28;45222;-68
2021/11/23 09:46:45;;;;;;;;;6.00;3.00;;;;;5.41;51.06;102577.84;5037215;28;45570;-68
2021/11/23 09:49:10;;;;;;;;;2.00;2.00;;;;;5.45;50.71;102587.28;5019976;28;45496;-68
2021/11/23 09:51:36;;;;;;;;;1.33;0.00;;;;;5.51;50.36;102590.66;5035847;28;45690;-69
2021/11/23 09:54:07;;;;;;;;;3.67;1.67;;;;;5.56;49.70;102580.97;5037650;28;45462;-68
2021/11/23 09:56:33;;;;;;;;;1.67;1.00;;;;;5.63;49.63;102569.53;5036169;28;46435;-68
2021/11/23 09:58:59;;;;;;;;;2.67;1.00;;;;;5.68;49.07;102570.28;5037469;28;45428;-67
2021/11/23 10:01:28;;;;;;;;;6.33;3.67;;;;;5.74;49.12;102571.88;5034972;28;45515;-67
2021/11/23 10:03:55;;;;;;;;;4.33;1.00;;;;;5.82;48.49;102575.13;5032019;28;45446;-67
2021/11/23 10:06:23;;;;;;;;;1.33;1.33;;;;;5.91;49.71;102576.66;5036881;28;47366;-68
2021/11/23 10:08:51;;;;;;;;;6.00;3.00;;;;;5.99;48.44;102586.94;5037424;28;45444;-66
2021/11/23 10:11:26;;;;;;;;;2.00;2.00;;;;;6.00;47.26;102579.06;5035981;28;45279;-68
2021/11/23 10:13:55;;;;;;;;;5.00;2.00;;;;;6.04;47.84;102575.47;5036123;28;45540;-68
2021/11/23 10:16:21;;;;;;;;;1.00;1.00;;;;;6.10;48.35;102571.88;5024134;28;46235;-68
2021/11/23 10:18:50;;;;;;;;;2.00;2.00;;;;;6.16;48.45;102573.44;5038641;28;45388;-68
2021/11/23 10:21:24;;;;;;;;;3.00;2.33;;;;;6.29;48.27;102574.84;5036930;28;45515;-67
2021/11/23 10:23:55;;;;;;;;;3.67;2.00;;;;;6.40;47.34;102567.59;5037110;28;45440;-69
2021/11/23 10:26:26;;;;;;;;;1.67;1.67;;;;;6.48;47.29;102564.75;5041705;28;46957;-67
2021/11/23 10:28:55;;;;;;;;;2.33;2.33;;;;;6.54;47.45;102574.16;5043970;28;45342;-68
2021/11/23 10:31:23;;;;;;;;;2.00;2.00;;;;;6.59;48.00;102565.31;5040429;28;45435;-67
2021/11/23 10:34:16;;;;;;;;;1.00;0.00;;;;;6.59;45.80;102573.16;5039948;28;45384;-68
2021/11/23 10:36:44;;;;;;;;;2.00;2.00;;;;;6.59;46.81;102573.16;5036609;28;46276;-68
2021/11/23 10:39:11;;;;;;;;;2.00;2.00;;;;;6.63;46.17;102563.50;5041415;28;45369;-67
2021/11/23 10:41:39;;;;;;;;;7.00;2.33;;;;;6.64;46.48;102557.34;5041197;28;45530;-68
2021/11/23 10:44:18;;;;;;;;;1.67;1.33;;;;;6.68;45.32;102560.72;5040184;28;45334;-68
2021/11/23 10:46:52;;;;;;;;;4.00;1.00;;;;;6.68;45.61;102551.16;5041008;28;45638;-68
2021/11/23 10:49:29;;;;;;;;;1.00;1.00;;;;;6.69;46.47;102557.22;5041106;28;45326;-68
2021/11/23 10:51:55;;;;;;;;;2.00;0.00;;;;;6.74;47.20;102550.97;5037375;28;45456;-68
2021/11/23 10:54:20;;;;;;;;;1.00;1.00;;;;;6.81;46.68;102546.44;5020015;28;45723;-68
2021/11/23 10:57:00;;;;;;;;;1.67;1.33;;;;;6.87;46.08;102561.06;5040528;28;47019;-68
2021/11/23 10:59:26;;;;;;;;;1.00;1.00;;;;;6.86;45.92;102544.56;5040078;28;45253;-70
2021/11/23 11:01:53;;;;;;;;;1.00;1.00;;;;;6.89;46.78;102534.00;5046328;28;45297;-68
2021/11/23 11:04:19;;;;;;;;;1.00;1.00;;;;;6.93;47.37;102535.59;5039507;28;45318;-67
2021/11/23 11:06:46;;;;;;;;;1.00;1.00;;;;;7.02;45.82;102539.72;5037852;28;47284;-67
2021/11/23 11:09:12;;;;;;;;;0.00;0.00;;;;;7.05;45.83;102533.53;5024645;28;45539;-66
2021/11/23 11:11:37;;;;;;;;;0.00;0.00;;;;;7.04;46.05;102516.97;5040742;28;45294;-68
2021/11/23 11:14:05;;;;;;;;;2.00;1.00;;;;;7.06;46.14;102520.41;5038205;28;45315;-66
2021/11/23 11:16:35;;;;;;;;;1.67;1.67;;;;;7.12;45.69;102524.59;5038325;28;46356;-68
2021/11/23 11:19:04;;;;;;;;;1.00;1.00;;;;;7.17;45.80;102521.84;5037074;28;45429;-68